Terminal Aerodrome Forecast
Issued by NWS Sioux Falls, SD

Home | Current Version | Previous Version | Text Only | Print | Product List | Glossary On
Versions: 1 2 3 4 5 6 7 8 9 10 11 12 13 14 15
000
FTUS43 KFSD 242320
TAFHON
TAF
KHON 242320Z 2500/2524 15015G24KT P6SM SCT150
     FM250400 15013G19KT P6SM SCT130 WS015/17040KT
     FM250900 16012G18KT P6SM SKC WS015/20040KT
     FM251100 16012KT P6SM SKC
     FM251500 18008KT P6SM SKC
     FM252000 26008KT P6SM SCT150
     FM252100 29009KT P6SM BKN150
     FM252300 05009KT P6SM VCTS BKN090CB=

USA.gov is the U.S. government's official web portal to all federal, state and local government web resources and services.